Time;durP1;ratioP1;P1;durP2;ratioP2;P2;SDS_P1;SDS_P2;PMS_P1;PMS_P2;Temp;Humidity;BMP_temperature;BMP_pressure;BME280_temperature;BME280_humidity;BME280_pressure;Samples;Min_cycle;Max_cycle;Signal;HPM_P1;HPM_P2
2022/01/11 00:01:57;;;;;;;503.20;51.90;;;-0.70;99.90;;;;;;5032590;28;20478;-72
2022/01/11 00:04:29;;;;;;;660.23;61.00;;;-0.50;99.90;;;;;;5035499;28;20453;-72
2022/01/11 00:06:56;;;;;;;884.93;69.60;;;-0.50;99.90;;;;;;5031638;28;20952;-72
2022/01/11 00:09:32;;;;;;;692.40;56.70;;;-0.40;99.90;;;;;;5042333;28;20547;-72
2022/01/11 00:12:01;;;;;;;584.10;49.27;;;-0.40;99.90;;;;;;5028422;28;20527;-73
2022/01/11 00:14:28;;;;;;;269.73;38.30;;;-0.50;99.90;;;;;;5026701;28;20520;-73
2022/01/11 00:16:55;;;;;;;529.20;48.23;;;-0.50;99.90;;;;;;5037250;28;20462;-72
2022/01/11 00:19:22;;;;;;;529.03;51.83;;;-0.40;99.90;;;;;;5041889;28;20999;-72
2022/01/11 00:21:49;;;;;;;746.57;62.13;;;-0.30;99.90;;;;;;5042585;28;20472;-71
2022/01/11 00:24:29;;;;;;;502.00;48.10;;;-0.30;99.90;;;;;;5047043;28;20547;-72
2022/01/11 00:26:58;;;;;;;721.77;61.67;;;-0.30;99.90;;;;;;5039000;28;20568;-72
2022/01/11 00:29:27;;;;;;;546.77;52.80;;;-0.30;99.90;;;;;;5048584;28;20933;-72
2022/01/11 00:31:57;;;;;;;498.37;47.63;;;-0.40;99.90;;;;;;5040942;28;20458;-71
2022/01/11 00:34:25;;;;;;;803.57;65.67;;;-0.30;99.90;;;;;;5043587;28;20517;-72
2022/01/11 00:36:52;;;;;;;748.83;67.27;;;-0.20;99.90;;;;;;5038142;28;20460;-71
2022/01/11 00:39:18;;;;;;;457.90;52.27;;;-0.20;99.90;;;;;;5042697;28;20496;-72
2022/01/11 00:41:46;;;;;;;741.37;59.57;;;-0.20;99.90;;;;;;5041988;28;20469;-72
2022/01/11 00:44:14;;;;;;;372.47;40.57;;;-0.10;99.90;;;;;;5045195;28;20458;-72
2022/01/11 00:46:44;;;;;;;185.90;34.87;;;-0.10;99.90;;;;;;5058869;28;20486;-72
2022/01/11 00:49:11;;;;;;;443.73;44.37;;;-0.10;99.90;;;;;;5054149;28;20470;-72
2022/01/11 00:51:38;;;;;;;482.50;43.63;;;-0.10;99.90;;;;;;5066375;28;20957;-71
2022/01/11 00:54:05;;;;;;;595.83;57.47;;;-0.10;99.90;;;;;;5059949;28;21305;-73
2022/01/11 00:56:32;;;;;;;692.57;56.80;;;-0.10;99.90;;;;;;5063091;28;20471;-72
2022/01/11 00:58:59;;;;;;;502.00;44.70;;;-0.10;99.90;;;;;;5057305;28;20490;-71
2022/01/11 01:01:27;;;;;;;436.13;43.30;;;0.10;99.90;;;;;;5042094;28;20489;-72
2022/01/11 01:03:56;;;;;;;337.57;39.10;;;0.10;99.90;;;;;;5044578;28;21137;-72
2022/01/11 01:06:23;;;;;;;285.87;37.10;;;0.00;99.90;;;;;;5042585;28;20470;-73
2022/01/11 01:08:50;;;;;;;358.27;37.87;;;-0.10;99.90;;;;;;5044859;28;20468;-74
2022/01/11 01:11:17;;;;;;;195.60;34.50;;;-0.10;99.90;;;;;;5053121;28;20569;-75
2022/01/11 01:13:44;;;;;;;202.00;34.87;;;0.00;99.90;;;;;;5050149;28;20469;-72
2022/01/11 01:16:11;;;;;;;346.00;39.20;;;0.00;99.90;;;;;;5039432;28;20470;-73
2022/01/11 01:18:37;;;;;;;112.17;31.87;;;0.10;99.90;;;;;;5045108;28;20482;-74
2022/01/11 01:21:06;;;;;;;322.63;40.53;;;0.00;99.90;;;;;;5055362;28;20460;-72
2022/01/11 01:23:33;;;;;;;488.40;43.10;;;0.00;99.90;;;;;;5055308;28;20811;-72
2022/01/11 01:26:01;;;;;;;349.47;37.40;;;-0.10;99.90;;;;;;5044811;28;20459;-73
2022/01/11 01:28:29;;;;;;;366.60;37.37;;;-0.10;99.90;;;;;;5035753;28;20462;-73
2022/01/11 01:31:00;;;;;;;233.97;35.30;;;0.10;99.90;;;;;;5046558;28;21363;-72
2022/01/11 01:33:27;;;;;;;304.17;40.10;;;0.10;99.90;;;;;;5039972;28;20554;-75
2022/01/11 01:36:00;;;;;;;290.27;37.73;;;0.10;99.90;;;;;;5049055;28;20466;-74
2022/01/11 01:38:29;;;;;;;478.70;45.47;;;0.00;99.90;;;;;;5054722;28;20457;-71
2022/01/11 01:41:02;;;;;;;226.77;33.23;;;0.00;99.90;;;;;;5049445;28;20503;-72
2022/01/11 01:43:30;;;;;;;336.13;36.90;;;-0.10;99.90;;;;;;5059330;28;20864;-72
2022/01/11 01:45:59;;;;;;;387.60;39.20;;;0.00;99.90;;;;;;5054247;28;20490;-72
2022/01/11 01:48:26;;;;;;;367.00;42.00;;;0.00;99.90;;;;;;5052589;28;20475;-72
2022/01/11 01:50:54;;;;;;;217.57;35.83;;;0.00;99.90;;;;;;5062178;28;20808;-72
2022/01/11 01:53:21;;;;;;;551.40;43.50;;;0.00;99.90;;;;;;5056383;28;20553;-72
2022/01/11 01:55:49;;;;;;;545.83;47.47;;;-0.10;99.90;;;;;;5065933;28;20466;-72
2022/01/11 01:58:17;;;;;;;360.37;41.80;;;0.00;99.90;;;;;;5055742;28;20502;-72
2022/01/11 02:00:51;;;;;;;257.20;38.37;;;0.10;99.90;;;;;;5054281;28;20513;-72
2022/01/11 02:03:25;;;;;;;433.87;44.43;;;0.20;99.90;;;;;;5056319;28;20455;-72
2022/01/11 02:05:53;;;;;;;389.17;41.13;;;0.10;99.90;;;;;;5058231;28;20871;-72
2022/01/11 02:08:20;;;;;;;288.10;38.67;;;0.10;99.90;;;;;;5069421;28;20980;-72
2022/01/11 02:10:47;;;;;;;277.53;39.50;;;0.10;99.90;;;;;;5060572;28;20970;-72
2022/01/11 02:13:15;;;;;;;201.00;37.20;;;0.10;99.90;;;;;;5060326;28;20466;-72
2022/01/11 02:15:42;;;;;;;444.00;46.67;;;0.20;99.90;;;;;;5058858;28;20467;-72
2022/01/11 02:18:11;;;;;;;272.07;38.67;;;0.10;99.90;;;;;;5056032;28;20471;-72
2022/01/11 02:20:40;;;;;;;407.90;42.47;;;0.10;99.90;;;;;;5059832;28;23248;-72
2022/01/11 02:23:07;;;;;;;439.67;45.07;;;0.10;99.90;;;;;;5059793;28;20472;-72
2022/01/11 02:25:35;;;;;;;462.93;45.93;;;0.10;99.90;;;;;;5057143;28;20465;-72
2022/01/11 02:28:02;;;;;;;655.17;55.90;;;0.20;99.90;;;;;;5049866;28;20470;-72
2022/01/11 02:30:32;;;;;;;582.73;55.07;;;0.10;99.90;;;;;;5058613;28;20462;-72
2022/01/11 02:33:00;;;;;;;633.50;56.10;;;0.30;99.90;;;;;;5057235;28;20962;-72
2022/01/11 02:35:27;;;;;;;685.50;57.40;;;0.30;99.90;;;;;;5062744;28;20469;-74
2022/01/11 02:37:56;;;;;;;390.67;45.13;;;0.30;99.90;;;;;;5051174;28;20467;-72
2022/01/11 02:40:23;;;;;;;335.93;42.73;;;0.20;99.90;;;;;;5063922;28;20498;-73
2022/01/11 02:42:49;;;;;;;420.77;46.73;;;0.10;99.90;;;;;;5060628;28;20467;-72
2022/01/11 02:45:18;;;;;;;364.30;40.73;;;0.10;99.90;;;;;;5051757;28;20489;-72
2022/01/11 02:47:46;;;;;;;558.43;56.10;;;0.20;99.90;;;;;;5051645;28;20463;-72
2022/01/11 02:50:13;;;;;;;437.50;48.80;;;0.20;99.90;;;;;;5050027;28;20482;-71
2022/01/11 02:52:40;;;;;;;471.93;48.50;;;0.20;99.90;;;;;;5064668;28;20464;-72
2022/01/11 02:55:12;;;;;;;334.00;43.47;;;0.30;99.90;;;;;;5050627;28;20553;-71
2022/01/11 02:57:39;;;;;;;284.03;40.50;;;0.30;99.90;;;;;;5059934;28;20492;-72
2022/01/11 03:00:07;;;;;;;252.13;42.87;;;0.30;99.90;;;;;;5058318;28;20518;-71
2022/01/11 03:02:34;;;;;;;334.40;45.80;;;0.30;99.90;;;;;;5058315;28;20463;-72
2022/01/11 03:05:01;;;;;;;348.50;47.10;;;0.20;99.90;;;;;;5057380;28;20548;-72
2022/01/11 03:07:28;;;;;;;191.83;39.63;;;0.20;99.90;;;;;;5061659;28;20626;-72
2022/01/11 03:10:02;;;;;;;285.60;42.13;;;0.20;99.90;;;;;;5062121;28;20476;-71
2022/01/11 03:12:31;;;;;;;237.23;38.93;;;0.10;99.90;;;;;;5055458;28;20970;-72
2022/01/11 03:14:59;;;;;;;579.00;56.37;;;0.10;99.90;;;;;;5061406;28;20573;-72
2022/01/11 03:17:26;;;;;;;512.07;53.20;;;0.20;99.90;;;;;;5061988;28;21308;-71
2022/01/11 03:19:53;;;;;;;748.33;63.40;;;0.20;99.90;;;;;;5055264;28;20498;-71
2022/01/11 03:22:20;;;;;;;509.30;51.23;;;0.30;99.90;;;;;;5057723;28;20462;-72
2022/01/11 03:24:47;;;;;;;425.57;47.00;;;0.40;99.90;;;;;;5060546;28;20469;-71
2022/01/11 03:27:14;;;;;;;344.67;41.50;;;0.30;99.90;;;;;;5057202;28;20455;-71
2022/01/11 03:29:43;;;;;;;274.70;42.17;;;0.20;99.90;;;;;;5054402;28;20475;-71
2022/01/11 03:32:12;;;;;;;163.57;37.00;;;0.20;99.90;;;;;;5064665;28;20463;-72
2022/01/11 03:34:41;;;;;;;230.30;41.00;;;0.20;99.90;;;;;;5058237;28;20465;-71
2022/01/11 03:37:10;;;;;;;278.13;42.47;;;0.30;99.90;;;;;;5060215;28;20459;-71
2022/01/11 03:39:37;;;;;;;106.43;34.23;;;0.30;99.90;;;;;;5059545;28;20487;-71
2022/01/11 03:42:04;;;;;;;252.00;39.27;;;0.20;99.90;;;;;;5061471;28;21087;-71
2022/01/11 03:44:31;;;;;;;391.50;44.10;;;0.10;99.90;;;;;;5056135;28;20489;-72
2022/01/11 03:46:59;;;;;;;414.40;43.87;;;0.00;99.90;;;;;;5060668;28;20483;-71
2022/01/11 03:49:26;;;;;;;705.07;54.47;;;0.00;99.90;;;;;;5056196;28;20980;-74
2022/01/11 03:51:53;;;;;;;516.47;50.03;;;0.00;99.90;;;;;;5068880;28;20471;-70
2022/01/11 03:54:25;;;;;;;578.37;53.73;;;0.00;99.90;;;;;;5064922;28;20455;-74
2022/01/11 03:56:53;;;;;;;281.00;41.40;;;0.10;99.90;;;;;;5062419;28;20478;-72
2022/01/11 03:59:22;;;;;;;329.27;44.67;;;0.00;99.90;;;;;;5065081;28;20556;-72
2022/01/11 04:01:51;;;;;;;557.53;54.50;;;0.00;99.90;;;;;;5066660;28;20470;-71
2022/01/11 04:04:19;;;;;;;343.07;44.17;;;-0.10;99.90;;;;;;5068457;28;20481;-73
2022/01/11 04:06:46;;;;;;;558.87;53.17;;;0.00;99.90;;;;;;5064561;28;20469;-72
2022/01/11 04:09:13;;;;;;;468.67;48.00;;;0.00;99.90;;;;;;5061018;28;20461;-73
2022/01/11 04:11:40;;;;;;;370.83;42.63;;;0.00;99.90;;;;;;5066045;28;20546;-71
2022/01/11 04:14:07;;;;;;;419.73;47.00;;;0.00;99.90;;;;;;5067718;28;20452;-73
2022/01/11 04:16:34;;;;;;;410.73;44.73;;;0.10;99.90;;;;;;5059949;28;20459;-73
2022/01/11 04:19:01;;;;;;;543.17;51.20;;;0.10;99.90;;;;;;5057023;28;20482;-73
2022/01/11 04:21:30;;;;;;;695.97;53.97;;;0.10;99.90;;;;;;5066319;28;20493;-71
2022/01/11 04:23:57;;;;;;;365.43;46.80;;;0.00;99.90;;;;;;5067410;28;20461;-72
2022/01/11 04:26:24;;;;;;;300.93;41.17;;;0.10;99.90;;;;;;5062811;28;20554;-71
2022/01/11 04:28:51;;;;;;;213.03;38.70;;;0.10;99.90;;;;;;5062387;28;20469;-71
2022/01/11 04:31:18;;;;;;;382.83;43.13;;;0.10;99.90;;;;;;5059008;28;20497;-71
2022/01/11 04:33:45;;;;;;;400.47;45.23;;;0.10;99.90;;;;;;5064765;28;20497;-72
2022/01/11 04:36:13;;;;;;;379.67;40.47;;;0.10;99.90;;;;;;5058941;28;20471;-71
2022/01/11 04:38:42;;;;;;;431.73;44.70;;;0.00;99.90;;;;;;5064109;28;21284;-73
2022/01/11 04:41:09;;;;;;;379.23;46.03;;;0.10;99.90;;;;;;5064183;28;20489;-72
2022/01/11 04:43:36;;;;;;;387.13;41.20;;;0.10;99.90;;;;;;5064601;28;20465;-73
2022/01/11 04:46:02;;;;;;;547.23;50.67;;;0.10;99.90;;;;;;5057450;28;21024;-71
2022/01/11 04:48:32;;;;;;;491.50;48.43;;;0.00;99.90;;;;;;5063488;28;20469;-72
2022/01/11 04:51:00;;;;;;;528.93;46.23;;;-0.10;99.90;;;;;;5066302;28;20517;-72
2022/01/11 04:53:27;;;;;;;533.00;47.60;;;0.00;99.90;;;;;;5065591;28;20486;-72
2022/01/11 04:55:56;;;;;;;521.30;47.93;;;-0.10;99.90;;;;;;5062242;28;20497;-73
2022/01/11 04:58:22;;;;;;;488.23;45.80;;;-0.10;99.90;;;;;;5058984;28;20487;-73
2022/01/11 05:00:49;;;;;;;236.83;35.20;;;0.00;99.90;;;;;;5043004;28;20483;-70
2022/01/11 05:03:18;;;;;;;641.93;51.03;;;-0.10;99.90;;;;;;5033173;28;20462;-71
2022/01/11 05:05:45;;;;;;;387.83;41.60;;;-0.20;99.90;;;;;;5017098;28;20484;-71
2022/01/11 05:08:12;;;;;;;323.63;40.47;;;-0.10;99.90;;;;;;5032731;28;21402;-72
2022/01/11 05:10:42;;;;;;;596.67;48.33;;;-0.10;99.90;;;;;;5032531;28;20957;-71
2022/01/11 05:13:11;;;;;;;474.73;43.70;;;-0.10;99.90;;;;;;5033056;28;20502;-70
2022/01/11 05:15:39;;;;;;;529.63;44.57;;;-0.20;99.90;;;;;;5032785;28;20460;-72
2022/01/11 05:18:06;;;;;;;444.33;46.37;;;-0.30;99.90;;;;;;5038070;28;20816;-72
2022/01/11 05:20:33;;;;;;;409.13;43.97;;;-0.20;99.90;;;;;;5051251;28;20494;-73
2022/01/11 05:23:00;;;;;;;423.90;42.03;;;0.00;99.90;;;;;;5055998;28;20462;-71
2022/01/11 05:25:27;;;;;;;483.03;44.73;;;0.00;99.90;;;;;;5049619;28;20467;-72
2022/01/11 05:27:54;;;;;;;455.53;46.57;;;-0.10;99.90;;;;;;5032628;28;20511;-71
2022/01/11 05:30:23;;;;;;;708.27;54.27;;;0.00;99.90;;;;;;5032789;28;20462;-73
2022/01/11 05:32:51;;;;;;;726.73;53.47;;;-0.10;99.90;;;;;;5035390;28;20467;-71
2022/01/11 05:35:19;;;;;;;571.37;46.07;;;-0.10;99.90;;;;;;5059078;28;20461;-73
2022/01/11 05:37:46;;;;;;;677.80;50.33;;;-0.20;99.90;;;;;;5052021;28;20903;-70
2022/01/11 05:40:15;;;;;;;632.30;49.93;;;-0.30;99.90;;;;;;5032340;28;20497;-72
2022/01/11 05:42:44;;;;;;;573.63;43.47;;;-0.30;99.90;;;;;;5031851;28;20555;-71
2022/01/11 05:45:12;;;;;;;662.90;45.50;;;-0.30;99.90;;;;;;5032398;28;20487;-72
2022/01/11 05:47:40;;;;;;;535.27;45.47;;;-0.40;99.90;;;;;;5032326;28;20492;-72
2022/01/11 05:50:10;;;;;;;485.47;42.90;;;-0.40;99.90;;;;;;5032401;28;20757;-71
2022/01/11 05:52:39;;;;;;;552.03;43.97;;;-0.40;99.90;;;;;;5031312;28;20810;-73
2022/01/11 05:55:08;;;;;;;244.97;33.43;;;-0.40;99.90;;;;;;5032015;28;20468;-71
2022/01/11 05:57:36;;;;;;;470.37;43.70;;;-0.30;99.90;;;;;;5029202;28;21085;-71
2022/01/11 06:00:04;;;;;;;381.20;39.27;;;-0.20;99.90;;;;;;5030412;28;20560;-72
2022/01/11 06:02:31;;;;;;;439.30;41.17;;;-0.30;99.90;;;;;;5031583;28;20474;-71
2022/01/11 06:04:59;;;;;;;360.83;40.93;;;-0.30;99.90;;;;;;5031464;28;21123;-70
2022/01/11 06:07:25;;;;;;;305.07;37.30;;;-0.40;99.90;;;;;;5030543;28;20467;-70
2022/01/11 06:09:52;;;;;;;302.77;35.57;;;-0.30;99.90;;;;;;5029575;28;20468;-73
2022/01/11 06:12:19;;;;;;;288.77;35.70;;;-0.30;99.90;;;;;;5030551;28;20475;-72
2022/01/11 06:14:46;;;;;;;532.97;46.77;;;-0.30;99.90;;;;;;5030697;28;21003;-71
2022/01/11 06:17:13;;;;;;;452.97;41.87;;;-0.30;99.90;;;;;;5030930;28;21354;-71
2022/01/11 06:19:40;;;;;;;350.60;39.63;;;-0.20;99.90;;;;;;5031272;28;20973;-70
2022/01/11 06:22:08;;;;;;;384.10;41.00;;;-0.30;99.90;;;;;;5030365;28;21124;-70
2022/01/11 06:24:35;;;;;;;440.87;44.13;;;-0.30;99.90;;;;;;5030801;28;20594;-71
2022/01/11 06:27:01;;;;;;;377.17;35.50;;;-0.40;99.90;;;;;;5030851;28;20458;-70
2022/01/11 06:29:28;;;;;;;360.57;40.90;;;-0.30;99.90;;;;;;5031500;28;21105;-72
2022/01/11 06:31:55;;;;;;;270.30;36.27;;;-0.30;99.90;;;;;;5027488;28;20455;-71
2022/01/11 06:34:22;;;;;;;477.17;45.90;;;-0.30;99.90;;;;;;5028726;28;20976;-71
2022/01/11 06:36:49;;;;;;;527.10;45.97;;;-0.40;99.90;;;;;;5030087;28;20470;-70
2022/01/11 06:39:17;;;;;;;135.37;32.13;;;-0.50;99.90;;;;;;5029084;28;20468;-70
2022/01/11 06:41:44;;;;;;;450.10;45.87;;;-0.40;99.90;;;;;;5028809;28;21132;-72
2022/01/11 06:44:10;;;;;;;685.93;47.33;;;-0.40;99.90;;;;;;5028473;28;20471;-72
2022/01/11 06:46:37;;;;;;;366.33;38.03;;;-0.40;99.90;;;;;;5035136;28;20492;-72
2022/01/11 06:49:05;;;;;;;417.40;39.80;;;-0.40;99.90;;;;;;5052382;28;20455;-71
2022/01/11 06:51:32;;;;;;;282.97;36.00;;;-0.30;99.90;;;;;;5059116;28;20524;-70
2022/01/11 06:53:59;;;;;;;446.43;44.27;;;-0.40;99.90;;;;;;5028855;28;20893;-72
2022/01/11 06:56:27;;;;;;;519.80;42.53;;;-0.40;99.90;;;;;;5028345;28;20479;-70
2022/01/11 06:58:54;;;;;;;772.40;57.70;;;-0.40;99.90;;;;;;5027747;28;20519;-70
2022/01/11 07:01:21;;;;;;;631.23;51.37;;;-0.40;99.90;;;;;;5027663;28;20572;-72
2022/01/11 07:03:47;;;;;;;240.23;34.50;;;-0.30;99.90;;;;;;5038164;28;20467;-72
2022/01/11 07:06:14;;;;;;;365.13;40.80;;;-0.40;99.90;;;;;;5059363;28;20462;-72
2022/01/11 07:08:41;;;;;;;330.47;38.37;;;-0.30;99.90;;;;;;5043323;28;21315;-72
2022/01/11 07:11:08;;;;;;;437.00;45.03;;;-0.30;99.90;;;;;;5029287;28;20460;-71
2022/01/11 07:13:37;;;;;;;277.13;37.00;;;-0.30;99.90;;;;;;5028293;28;20471;-71
2022/01/11 07:16:04;;;;;;;182.20;31.20;;;-0.30;99.90;;;;;;5051142;28;20539;-71
2022/01/11 07:18:31;;;;;;;69.47;29.73;;;-0.40;99.90;;;;;;5054398;28;20463;-71
2022/01/11 07:20:58;;;;;;;77.10;29.73;;;-0.40;99.90;;;;;;5057141;28;21080;-73
2022/01/11 07:23:25;;;;;;;70.27;29.77;;;-0.40;99.90;;;;;;5055746;28;20471;-70
2022/01/11 07:25:52;;;;;;;71.67;29.13;;;-0.40;99.90;;;;;;5039636;28;20475;-71
2022/01/11 07:28:19;;;;;;;92.20;28.67;;;-0.30;99.90;;;;;;5043688;28;20455;-69
2022/01/11 07:30:47;;;;;;;67.30;28.00;;;-0.30;99.90;;;;;;5061414;28;20467;-70
2022/01/11 07:33:14;;;;;;;124.67;30.00;;;-0.50;99.90;;;;;;5051264;28;20475;-71
2022/01/11 07:35:41;;;;;;;322.43;39.27;;;-0.40;99.90;;;;;;5036134;28;20918;-72
2022/01/11 07:38:08;;;;;;;114.43;31.67;;;-0.20;99.90;;;;;;5028077;28;20456;-71
2022/01/11 07:40:35;;;;;;;122.27;31.13;;;-0.30;99.90;;;;;;5056828;28;20459;-73
2022/01/11 07:43:02;;;;;;;181.57;33.50;;;-0.30;99.90;;;;;;5059344;28;20856;-70
2022/01/11 07:45:30;;;;;;;245.53;36.10;;;-0.30;99.90;;;;;;5062738;28;20517;-72
2022/01/11 07:47:58;;;;;;;260.70;38.33;;;-0.40;99.90;;;;;;5028518;28;20472;-72
2022/01/11 07:50:25;;;;;;;566.20;50.97;;;-0.40;99.90;;;;;;5026897;28;20451;-71
2022/01/11 07:52:52;;;;;;;320.13;37.30;;;-0.40;99.90;;;;;;5027113;28;20467;-70
2022/01/11 07:55:19;;;;;;;104.13;32.07;;;-0.40;99.90;;;;;;5027696;28;20456;-71
2022/01/11 07:57:46;;;;;;;340.03;38.93;;;-0.40;99.90;;;;;;5031545;28;20486;-73
2022/01/11 08:00:14;;;;;;;198.23;34.70;;;-0.40;99.90;;;;;;5064659;28;20465;-72
2022/01/11 08:02:41;;;;;;;66.10;28.33;;;-0.40;99.90;;;;;;5060209;28;20483;-70
2022/01/11 08:05:10;;;;;;;42.57;27.00;;;-0.30;99.90;;;;;;5049859;28;20470;-72
2022/01/11 08:07:39;;;;;;;46.57;28.83;;;-0.20;99.90;;;;;;5024957;28;20462;-73
2022/01/11 08:10:09;;;;;;;122.00;31.47;;;-0.30;99.90;;;;;;5024569;28;20824;-71
2022/01/11 08:12:35;;;;;;;41.93;27.20;;;-0.20;99.90;;;;;;5025742;28;20466;-71
2022/01/11 08:15:04;;;;;;;47.00;28.27;;;-0.20;99.90;;;;;;5026389;28;20951;-71
2022/01/11 08:17:31;;;;;;;75.70;28.10;;;-0.30;99.90;;;;;;5028093;28;21036;-71
2022/01/11 08:19:58;;;;;;;67.50;29.47;;;-0.30;99.90;;;;;;5028342;28;20491;-72
2022/01/11 08:22:26;;;;;;;113.60;28.20;;;-0.20;99.90;;;;;;5027473;28;20899;-71
2022/01/11 08:24:53;;;;;;;124.07;32.40;;;-0.10;99.90;;;;;;5027728;28;20972;-72
2022/01/11 08:27:22;;;;;;;179.03;34.20;;;-0.20;99.90;;;;;;5027961;28;20498;-72
2022/01/11 08:29:49;;;;;;;293.30;36.60;;;-0.10;99.90;;;;;;5027812;28;20466;-71
2022/01/11 08:32:16;;;;;;;205.40;33.27;;;-0.20;99.90;;;;;;5028289;28;20975;-70
2022/01/11 08:34:43;;;;;;;233.07;33.77;;;0.00;99.90;;;;;;5027204;28;20499;-71
2022/01/11 08:37:10;;;;;;;189.27;33.90;;;0.10;99.90;;;;;;5030323;28;20474;-71
2022/01/11 08:39:39;;;;;;;240.83;36.77;;;0.00;99.90;;;;;;5031353;28;20463;-71
2022/01/11 08:42:08;;;;;;;214.43;35.83;;;-0.10;99.90;;;;;;5030769;28;20559;-72
2022/01/11 08:44:35;;;;;;;133.67;32.27;;;-0.10;99.90;;;;;;5031340;28;20998;-72
2022/01/11 08:47:01;;;;;;;163.97;33.20;;;0.10;99.90;;;;;;5030528;28;20985;-72
2022/01/11 08:49:28;;;;;;;125.20;32.63;;;0.10;99.90;;;;;;5031227;28;20585;-72
2022/01/11 08:51:55;;;;;;;124.27;27.93;;;0.00;99.90;;;;;;5031370;28;20463;-71
2022/01/11 08:54:24;;;;;;;202.03;34.33;;;0.10;99.90;;;;;;5031152;28;20470;-72
2022/01/11 08:56:55;;;;;;;118.60;31.93;;;0.00;99.90;;;;;;5031440;28;20564;-71
2022/01/11 08:59:23;;;;;;;57.03;30.40;;;0.00;99.90;;;;;;5030551;28;21004;-71
2022/01/11 09:01:50;;;;;;;136.20;34.07;;;0.10;99.90;;;;;;5030439;28;21395;-71
2022/01/11 09:04:17;;;;;;;137.73;34.33;;;0.30;99.90;;;;;;5031923;28;20470;-73
2022/01/11 09:06:44;;;;;;;144.57;31.97;;;0.40;99.90;;;;;;5031013;28;20470;-73
2022/01/11 09:09:13;;;;;;;51.30;33.00;;;0.30;99.90;;;;;;5030648;28;20486;-71
2022/01/11 09:11:41;;;;;;;60.87;30.10;;;0.40;99.90;;;;;;5031004;28;20463;-70
2022/01/11 09:14:10;;;;;;;94.67;32.00;;;0.60;99.90;;;;;;5030548;28;20977;-71
2022/01/11 09:16:37;;;;;;;58.87;31.67;;;0.50;99.90;;;;;;5034684;28;20966;-71
2022/01/11 09:19:04;;;;;;;63.40;30.17;;;0.60;99.90;;;;;;5031315;28;20476;-71
2022/01/11 09:21:32;;;;;;;80.00;31.20;;;0.60;99.90;;;;;;5029993;28;20491;-72
2022/01/11 09:23:59;;;;;;;51.60;31.00;;;0.60;99.90;;;;;;5029609;28;20458;-73
2022/01/11 09:26:26;;;;;;;44.63;29.93;;;0.60;99.90;;;;;;5030299;28;20872;-71
2022/01/11 09:28:53;;;;;;;65.50;32.80;;;0.60;99.90;;;;;;5029939;28;20471;-70
2022/01/11 09:31:21;;;;;;;57.73;31.70;;;0.70;99.90;;;;;;5029678;28;20940;-72
2022/01/11 09:33:50;;;;;;;43.60;30.50;;;0.70;99.90;;;;;;5030342;28;20467;-73
2022/01/11 09:36:18;;;;;;;49.57;31.50;;;0.60;99.90;;;;;;5030297;28;20475;-73
2022/01/11 09:38:45;;;;;;;62.40;32.17;;;0.60;99.90;;;;;;5029903;28;20804;-72
2022/01/11 09:41:12;;;;;;;62.43;31.93;;;0.80;99.90;;;;;;5029373;28;20468;-72
2022/01/11 09:43:39;;;;;;;44.83;30.53;;;1.00;99.90;;;;;;5029459;28;20464;-72
2022/01/11 09:46:05;;;;;;;42.23;32.03;;;1.10;99.90;;;;;;5029313;28;20482;-71
2022/01/11 09:48:35;;;;;;;51.43;31.90;;;1.10;99.90;;;;;;5029147;28;20460;-72
2022/01/11 09:51:03;;;;;;;45.20;31.33;;;1.20;99.90;;;;;;5030018;28;20471;-71
2022/01/11 09:53:30;;;;;;;60.83;31.40;;;1.20;99.90;;;;;;5030005;28;20459;-70
2022/01/11 09:55:58;;;;;;;50.50;31.70;;;1.20;99.90;;;;;;5029606;28;20474;-70
2022/01/11 09:58:25;;;;;;;47.73;30.50;;;1.10;99.90;;;;;;5029425;28;20476;-70
2022/01/11 10:00:52;;;;;;;52.83;30.93;;;1.20;99.90;;;;;;5030124;28;21236;-70
2022/01/11 10:03:19;;;;;;;45.57;30.77;;;1.30;99.90;;;;;;5029623;28;21028;-71
2022/01/11 10:05:48;;;;;;;54.87;32.37;;;1.40;99.90;;;;;;5030146;28;20470;-70
2022/01/11 10:08:23;;;;;;;44.17;30.73;;;1.50;99.90;;;;;;5029614;28;20456;-71
2022/01/11 10:10:52;;;;;;;46.00;30.30;;;1.70;99.90;;;;;;5029794;28;20498;-69
2022/01/11 10:13:31;;;;;;;42.43;31.33;;;1.80;99.90;;;;;;5030023;28;20467;-69
2022/01/11 10:15:58;;;;;;;43.03;31.40;;;1.90;99.90;;;;;;5030515;28;20855;-69
2022/01/11 10:18:35;;;;;;;38.53;30.57;;;1.90;99.90;;;;;;5028665;28;20958;-70
2022/01/11 10:21:21;;;;;;;41.80;32.03;;;1.90;99.90;;;;;;5029128;28;20485;-69
2022/01/11 10:23:48;;;;;;;46.50;32.03;;;1.90;99.90;;;;;;5029034;28;20474;-70
2022/01/11 10:26:15;;;;;;;43.40;30.43;;;1.80;99.90;;;;;;5027191;28;20463;-68
2022/01/11 10:28:41;;;;;;;37.43;29.77;;;1.90;99.90;;;;;;5028147;28;20463;-70
2022/01/11 10:31:08;;;;;;;45.23;29.97;;;1.90;99.90;;;;;;5029578;28;20452;-70
2022/01/11 10:33:35;;;;;;;46.60;32.93;;;1.90;99.90;;;;;;5029589;28;20529;-71
2022/01/11 10:36:03;;;;;;;47.63;30.70;;;2.00;99.90;;;;;;5029066;28;21019;-70
2022/01/11 10:38:31;;;;;;;51.40;30.40;;;2.00;99.90;;;;;;5028674;28;20565;-70
2022/01/11 10:40:58;;;;;;;44.30;30.30;;;2.10;99.90;;;;;;5028306;28;20464;-71
2022/01/11 10:43:25;;;;;;;49.13;31.20;;;2.20;99.90;;;;;;5029023;28;20483;-69
2022/01/11 10:45:53;;;;;;;45.80;30.73;;;2.20;99.90;;;;;;5028478;28;20507;-69
2022/01/11 10:48:23;;;;;;;45.60;31.57;;;2.20;99.90;;;;;;5028706;28;20464;-71
2022/01/11 10:50:52;;;;;;;44.00;31.67;;;2.10;99.90;;;;;;5028669;28;20820;-71
2022/01/11 10:53:23;;;;;;;43.87;31.57;;;2.00;99.90;;;;;;5028825;28;20452;-71
2022/01/11 10:55:52;;;;;;;50.23;32.80;;;1.90;99.90;;;;;;5028765;28;20467;-71
2022/01/11 10:58:19;;;;;;;50.67;32.37;;;1.90;99.90;;;;;;5027256;28;20487;-71
2022/01/11 11:00:48;;;;;;;49.80;32.13;;;1.80;99.90;;;;;;5028642;28;20475;-72
2022/01/11 11:03:16;;;;;;;55.07;31.50;;;1.90;99.90;;;;;;5028082;28;20586;-72
2022/01/11 11:05:47;;;;;;;56.30;34.03;;;2.00;99.90;;;;;;5028777;28;20459;-70
2022/01/11 11:08:16;;;;;;;57.23;32.53;;;2.10;99.90;;;;;;5027735;28;20467;-71
2022/01/11 11:10:50;;;;;;;57.80;34.80;;;2.20;99.90;;;;;;5028206;28;20843;-71
2022/01/11 11:13:23;;;;;;;50.33;32.40;;;2.40;99.90;;;;;;5029044;28;21353;-72
2022/01/11 11:15:51;;;;;;;51.10;32.70;;;2.50;99.90;;;;;;5028963;28;20495;-71
2022/01/11 11:18:39;;;;;;;67.53;34.70;;;2.70;99.90;;;;;;5028971;28;20699;-69
2022/01/11 11:21:16;;;;;;;50.40;32.93;;;3.60;99.90;;;;;;5021747;28;20476;-70
2022/01/11 11:23:44;;;;;;;45.80;33.00;;;4.40;99.90;;;;;;5028031;28;21268;-70
2022/01/11 11:26:12;;;;;;;50.23;33.57;;;4.80;99.90;;;;;;5027712;28;20665;-69
2022/01/11 11:28:40;;;;;;;43.47;33.87;;;4.70;99.90;;;;;;5028023;28;20567;-70
2022/01/11 11:31:07;;;;;;;42.40;31.23;;;4.20;99.90;;;;;;5028411;28;20469;-71
2022/01/11 11:33:36;;;;;;;44.90;31.80;;;3.60;99.90;;;;;;5028561;28;20454;-70
2022/01/11 11:36:04;;;;;;;50.73;33.57;;;3.40;99.90;;;;;;5026031;28;21027;-71
2022/01/11 11:38:33;;;;;;;45.23;34.10;;;3.20;99.90;;;;;;5027893;28;20476;-70
2022/01/11 11:41:02;;;;;;;44.63;32.50;;;3.00;99.90;;;;;;5028368;28;20464;-70
2022/01/11 11:43:32;;;;;;;48.47;33.13;;;3.00;99.90;;;;;;5027396;28;20522;-70
2022/01/11 11:45:59;;;;;;;48.07;32.13;;;3.10;99.90;;;;;;5028400;28;21385;-69
2022/01/11 11:48:28;;;;;;;46.47;32.90;;;3.20;99.90;;;;;;5027800;28;20478;-70
2022/01/11 11:50:57;;;;;;;66.50;35.70;;;3.30;99.90;;;;;;5028404;28;20916;-70
2022/01/11 11:53:28;;;;;;;49.33;35.40;;;4.30;99.90;;;;;;5028766;28;20473;-70
2022/01/11 11:56:13;;;;;;;57.00;33.43;;;5.10;99.90;;;;;;5027240;28;20480;-70
2022/01/11 11:58:44;;;;;;;51.40;32.60;;;6.00;99.90;;;;;;5025923;28;20490;-71
2022/01/11 12:01:42;;;;;;;42.50;30.80;;;6.90;99.90;;;;;;5027828;28;20467;-71
2022/01/11 12:04:14;;;;;;;41.23;29.93;;;7.20;99.90;;;;;;5027924;28;20531;-70
2022/01/11 12:06:42;;;;;;;51.60;29.83;;;7.40;99.90;;;;;;5028199;28;20557;-70
2022/01/11 12:09:10;;;;;;;37.13;28.70;;;7.10;99.90;;;;;;5028115;28;20689;-71
2022/01/11 12:11:38;;;;;;;41.93;30.90;;;6.70;99.90;;;;;;5030894;28;20460;-71
2022/01/11 12:14:07;;;;;;;44.10;32.10;;;6.60;99.90;;;;;;5031157;28;21602;-72
2022/01/11 12:16:42;;;;;;;46.50;32.20;;;6.70;99.90;;;;;;5031021;28;20917;-70
2022/01/11 12:19:34;;;;;;;44.03;31.60;;;6.80;99.90;;;;;;5030050;28;20463;-70
2022/01/11 12:22:27;;;;;;;46.73;30.87;;;6.70;99.90;;;;;;5041968;28;20467;-70
2022/01/11 12:24:56;;;;;;;37.47;29.83;;;6.90;99.90;;;;;;5021615;28;21440;-72
2022/01/11 12:27:24;;;;;;;38.00;30.60;;;6.60;99.90;;;;;;5030201;28;20463;-72
2022/01/11 12:30:00;;;;;;;40.10;29.00;;;7.00;99.90;;;;;;5059954;28;20458;-70
2022/01/11 12:32:28;;;;;;;44.73;32.60;;;7.70;99.90;;;;;;5030234;28;20474;-72